METAR Data
IDs: Format: Raw Decoded Include TAF

Data at: 0139 UTC 25 Mar 2019

KLRJ 250135Z AUTO 36011KT 10SM FEW040 OVC055 07/07 A3018 RMK AO2
KLRJ 250115Z AUTO 02008KT 10SM OVC049 07/07 A3017 RMK AO2
KLRJ 250055Z AUTO 02008KT 10SM OVC045 07/07 A3015 RMK AO2
KLRJ 250035Z AUTO 02010KT 10SM OVC047 08/07 A3015 RMK AO2
KLRJ 250015Z AUTO 02011G17KT 10SM SCT046 BKN065 OVC075 08/07 A3014 RMK AO2
KLRJ 242355Z AUTO 02013KT 10SM FEW046 BKN070 OVC080 09/07 A3013 RMK AO2
KLRJ 242335Z AUTO 03013G20KT 10SM SCT031 BKN037 OVC080 09/06 A3012 RMK AO2
KLRJ 242315Z AUTO 02012G19KT 10SM BKN031 OVC038 11/06 A3011 RMK AO2
KLRJ 242255Z AUTO 03012KT 10SM SCT031 OVC038 11/06 A3010 RMK AO2
KLRJ 242235Z AUTO 04011G16KT 10SM OVC033 12/06 A3010 RMK AO2
KLRJ 242215Z AUTO 04013KT 10SM SCT031 OVC060 12/06 A3009 RMK AO2
KLRJ 242155Z AUTO 05014KT 10SM OVC055 12/06 A3009 RMK AO2
KLRJ 242135Z AUTO 03014G19KT 10SM OVC055 11/05 A3008 RMK AO2
KLRJ 242115Z AUTO 04015KT 10SM BKN055 OVC090 11/05 A3008 RMK AO2
KLRJ 242055Z AUTO 04012G18KT 10SM FEW055 BKN090 12/06 A3007 RMK AO2
KLRJ 242035Z AUTO 03011G20KT 10SM BKN090 12/06 A3006 RMK AO2
KLRJ 242015Z AUTO 03014G21KT 10SM FEW022 FEW034 BKN055 12/05 A3006 RMK AO2
KLRJ 241955Z AUTO 03016G21KT 10SM FEW024 BKN032 OVC055 11/05 A3006 RMK AO2
KLRJ 241935Z AUTO 04013G21KT 10SM BKN027 BKN031 OVC045 11/04 A3007 RMK AO2
KLRJ 241915Z AUTO 03016G21KT 10SM OVC026 10/04 A3006 RMK AO2
KLRJ 241855Z AUTO 03017KT 10SM OVC025 10/04 A3006 RMK AO2
KLRJ 241835Z AUTO 03017KT 10SM OVC027 10/05 A3006 RMK AO2
KLRJ 241815Z AUTO 03011G17KT 10SM OVC028 08/05 A3006 RMK AO2
KLRJ 241755Z AUTO 03014KT 10SM SCT029 OVC041 09/05 A3006 RMK AO2
KLRJ 241735Z AUTO 02013G19KT 10SM BKN041 OVC060 08/06 A3006 RMK AO2
KLRJ 241715Z AUTO 02014KT 10SM OVC039 08/06 A3006 RMK AO2
KLRJ 241655Z AUTO 02012KT 10SM FEW009 OVC039 07/07 A3006 RMK AO2
KLRJ 241635Z AUTO 02011KT 8SM SCT009 OVC041 07/07 A3006 RMK AO2
KLRJ 241615Z AUTO 02008KT 8SM BKN007 OVC044 07/07 A3005 RMK AO2
KLRJ 241555Z AUTO 02011KT 8SM OVC007 06/06 A3005 RMK AO2
KLRJ 241535Z AUTO 02008KT 9SM OVC006 06/06 A3005 RMK AO2
KLRJ 241515Z AUTO 03008KT 8SM OVC006 06/06 A3004 RMK AO2
KLRJ 241455Z AUTO 03008KT 9SM OVC006 05/05 A3004 RMK AO2
KLRJ 241435Z AUTO 04011KT 9SM OVC007 05/05 A3004 RMK AO2
KLRJ 241415Z AUTO 03011KT 9SM OVC006 05/05 A3004 RMK AO2
KLRJ 241355Z AUTO 03008KT 8SM OVC006 05/05 A3004 RMK AO2
KLRJ 241335Z AUTO 03008KT 8SM BKN006 OVC031 05/05 A3003 RMK AO2
KLRJ 241315Z AUTO 02007KT 8SM OVC006 05/05 A3002 RMK AO2
KLRJ 241255Z AUTO 04007KT 8SM OVC006 05/05 A3001 RMK AO2
KLRJ 241235Z AUTO 03006KT 8SM OVC006 05/05 A3000 RMK AO2
KLRJ 241215Z AUTO 05003KT 10SM BKN006 OVC041 05/05 A3000 RMK AO2
KLRJ 241155Z AUTO 04007KT 10SM BKN005 OVC039 05/05 A2999 RMK AO2
KLRJ 241135Z AUTO 05008KT 10SM SCT006 OVC034 05/05 A2999 RMK AO2
KLRJ 241115Z AUTO 04010KT 10SM BKN006 OVC034 05/05 A2999 RMK AO2
KLRJ 241055Z AUTO 03007KT 10SM BKN007 OVC030 05/05 A2999 RMK AO2
KLRJ 241035Z AUTO 06008KT 10SM OVC029 05/05 A2999 RMK AO2
KLRJ 241015Z AUTO 06007KT 10SM OVC029 05/05 A2999 RMK AO2
KLRJ 240955Z AUTO 06008KT 10SM OVC029 06/06 A2998 RMK AO2
KLRJ 240935Z AUTO 05007KT 10SM FEW023 OVC030 05/05 A2998 RMK AO2
KLRJ 240915Z AUTO 05009KT 10SM -UP BKN023 OVC032 05/05 A2999 RMK AO2
KLRJ 240855Z AUTO 05007KT 10SM BKN023 OVC032 06/05 A2999 RMK AO2
KLRJ 240835Z AUTO 05006KT 10SM BKN023 OVC030 06/05 A2999 RMK AO2
KLRJ 240815Z AUTO 06007KT 10SM OVC030 06/05 A3000 RMK AO2
KLRJ 240755Z AUTO 05006KT 10SM OVC029 06/05 A3000 RMK AO2
KLRJ 240735Z AUTO 06008KT 10SM OVC031 06/04 A3000 RMK AO2
KLRJ 240715Z AUTO 07008KT 10SM OVC030 07/04 A3000 RMK AO2
KLRJ 240655Z AUTO 06009KT 10SM BKN027 OVC065 07/04 A3001 RMK AO2
KLRJ 240635Z AUTO 07008KT 10SM OVC065 07/04 A3001 RMK AO2
KLRJ 240615Z AUTO 07007KT 10SM FEW035 SCT041 OVC070 07/04 A3001 RMK AO2
KLRJ 240555Z AUTO 08007KT 10SM OVC036 07/04 A3001 RMK AO2
KLRJ 240535Z AUTO 07009KT 10SM OVC035 07/04 A3002 RMK AO2
KLRJ 240515Z AUTO 06009KT 10SM OVC035 07/04 A3002 RMK AO2
KLRJ 240455Z AUTO 07008KT 10SM OVC033 07/04 A3002 RMK AO2
KLRJ 240435Z AUTO 08008KT 10SM OVC032 07/04 A3003 RMK AO2
KLRJ 240415Z AUTO 07008KT 10SM OVC032 07/04 A3003 RMK AO2
KLRJ 240355Z AUTO 09008KT 10SM OVC031 07/04 A3004 RMK AO2
KLRJ 240335Z AUTO 09007KT 10SM SCT028 BKN043 OVC049 07/04 A3004 RMK AO2
KLRJ 240315Z AUTO 09007KT 10SM OVC049 07/04 A3004 RMK AO2
KLRJ 240255Z AUTO 09007KT 10SM OVC048 07/04 A3004 RMK AO2
KLRJ 240235Z AUTO 10009KT 10SM BKN048 OVC055 08/04 A3004 RMK AO2
KLRJ 240215Z AUTO 08008KT 10SM OVC055 08/04 A3003 RMK AO2
KLRJ 240155Z AUTO 10010KT 10SM OVC055 08/04 A3003 RMK AO2
KLRJ 240135Z AUTO 10012KT 10SM OVC060 08/04 A3003 RMK AO2
KLRJ 240115Z AUTO 10011G16KT 10SM OVC055 08/04 A3003 RMK AO2
KLRJ 240055Z AUTO 10009KT 10SM OVC060 08/04 A3003 RMK AO2
KLRJ 240035Z AUTO 10009KT 10SM OVC065 08/04 A3003 RMK AO2
KLRJ 240015Z AUTO 10013KT 10SM OVC070 09/04 A3002 RMK AO2
KLRJ 232355Z AUTO 10011KT 10SM OVC070 09/05 A3003 RMK AO2
KLRJ 232335Z AUTO 08007KT 10SM OVC070 09/04 A3003 RMK AO2
KLRJ 232315Z AUTO 09008KT 10SM OVC070 09/04 A3004 RMK AO2
KLRJ 232255Z AUTO 08009G15KT 10SM OVC070 10/04 A3003 RMK AO2
KLRJ 232235Z AUTO 08010KT 10SM FEW037 FEW055 OVC075 10/05 A3004 RMK AO2
KLRJ 232215Z AUTO 10010KT 10SM FEW037 SCT055 BKN080 10/04 A3005 RMK AO2
KLRJ 232155Z AUTO 10009KT 10SM SCT065 10/04 A3006 RMK AO2
KLRJ 232135Z AUTO 09007KT 10SM SCT060 BKN070 BKN080 10/04 A3007 RMK AO2
KLRJ 232115Z AUTO 10008KT 10SM BKN055 BKN070 BKN085 11/03 A3007 RMK AO2
KLRJ 232055Z AUTO 11006KT 10SM BKN060 BKN085 11/02 A3007 RMK AO2
KLRJ 232035Z AUTO 13010KT 10SM OVC060 11/02 A3007 RMK AO2
KLRJ 232015Z AUTO 10008KT 10SM OVC060 11/02 A3007 RMK AO2
KLRJ 231955Z AUTO 12008KT 10SM OVC065 12/02 A3008 RMK AO2
KLRJ 231935Z AUTO 11009KT 10SM BKN070 OVC080 12/02 A3008 RMK AO2
KLRJ 231915Z AUTO 10SM SCT080 BKN100 12/01 A3009 RMK AO2
KLRJ 231855Z AUTO 10SM SCT090 12/01 A3010 RMK AO2
KLRJ 231835Z AUTO 10SM FEW095 12/01 A3011 RMK AO2
KLRJ 231815Z AUTO 16012KT 10SM CLR 12/02 A3012 RMK AO2
KLRJ 231755Z AUTO 15012KT 10SM CLR 12/01 A3012 RMK AO2
KLRJ 231735Z AUTO 15012G18KT 10SM CLR 12/02 A3012 RMK AO2
KLRJ 231715Z AUTO 15010G18KT 10SM CLR 12/02 A3013 RMK AO2
KLRJ 231655Z AUTO 15013KT 10SM CLR 11/02 A3014 RMK AO2
KLRJ 231635Z AUTO 14013KT 10SM CLR 10/02 A3014 RMK AO2
KLRJ 231615Z AUTO 14014KT 10SM CLR 09/02 A3014 RMK AO2
KLRJ 231555Z AUTO 15013KT 10SM CLR 08/01 A3015 RMK AO2
KLRJ 231535Z AUTO 15013KT 10SM CLR 07/02 A3015 RMK AO2
KLRJ 231515Z AUTO 14008KT 10SM CLR 06/01 A3015 RMK AO2
KLRJ 231455Z AUTO 13007KT 10SM CLR 05/01 A3015 RMK AO2
KLRJ 231435Z AUTO 13005KT 10SM CLR 04/01 A3015 RMK AO2
KLRJ 231415Z AUTO 11003KT 10SM CLR 04/01 A3015 RMK AO2
KLRJ 231355Z AUTO 10006G12KT 10SM CLR 03/00 A3015 RMK AO2